Skip Navigation Links
NOAA logo - Click to go to the NOAA homepage
NOAA's National Weather Service
Alaska Aviation Weather Unit
  NWS logo - Click to go to the NWS homepage
Left Navbar Graphic     00 AKDT = 08 GMT

   
NOAA is celebrating 200 years of science, service, and stewardship. Visit the NOAA 200th celebration Web site to learn more.
USA.gov is the U.S. Government's official Web portal to all Federal, state and local government Web resources and services.
Facebook
NWS on Facebook

Important Change Regarding the AAWU Web Presence

 

Over the last several months, the AAWU has been working to navigate its webpages to a nationally supported server. Security, as well as other needs, have necessitated the change.  We have been given an extension for the site changeover while we diligently work at addressing feedback received. As of July 14, 2017, aawu.arh.noaa.gov will be discontinued. The new AAWU web address is weather.gov/aawu. It is now live and will run in-parallel with the old site until it is discontinued on July 14, 2017. Please continue to send any feedback or questions regarding the new webpages to nws.ar.aawu.webauthors@noaa.gov.  Thank you for your patience during this time of transition.
AAWU Home :: Display TAF Add Bookmark
TAF CYYE 101840Z 1019/1107 VRB03KT P6SM SKC
    RMK NXT FCST BY 110100Z=

METAR CYYE 240200Z 08004KT 15SM BKN100 BKN200 13/05 A2985 RMK AC6CI1 SLP123 DENSITY ALT 1400FT= METAR CYYE 240300Z 11003KT 15SM BKN100 BKN200 11/04 A2985 RMK AC6CI1 SLP121 DENSITY ALT 1300FT= METAR CYYE 240400Z VRB02KT 15SM BKN100 11/04 A2984 RMK AC5 SLP118= METAR CYYE 240500Z 00000KT 15SM FEW074 SCT097 09/04 A2982 RMK AC2AC2 SLP115= METAR CYYE 240600Z VRB02KT 15SM FEW075 SCT230 07/04 A2982 RMK AC2CI2 SLP114= METAR CYYE 240700Z 26003KT 15SM BKN090 BKN200 06/04 A2982 RMK AC5CI2 SLP112= METAR CYYE 240800Z 29003KT 220V290 15SM SCT130 BKN200 05/03 A2980 RMK AC4CI3 SLP107=
 Alaska TAF Map

NOAA's National Weather Service
Alaska Aviation Weather Unit
6930 Sand Lake Road
Anchorage, AK 99502-1845
Disclaimer
Credits
Glossary
Privacy Policy
About Us
Career Opportunities
Contact AAWU Internet Services Site last modified: April, 17th 2012